sensor_id;sensor_type;location;lat;lon;timestamp;P1;durP1;ratioP1;P2;durP2;ratioP2
68212;SDS011;55035;47.792;8.724;2023-01-01T00:00:26;196.93;;;91.70;;
68212;SDS011;55035;47.792;8.724;2023-01-01T00:02:53;175.75;;;81.18;;
68212;SDS011;55035;47.792;8.724;2023-01-01T00:05:22;163.63;;;73.82;;
68212;SDS011;55035;47.792;8.724;2023-01-01T00:07:48;132.65;;;59.25;;
68212;SDS011;55035;47.792;8.724;2023-01-01T00:10:15;129.25;;;55.20;;
68212;SDS011;55035;47.792;8.724;2023-01-01T00:12:54;126.07;;;54.57;;
68212;SDS011;55035;47.792;8.724;2023-01-01T00:15:21;138.70;;;57.95;;
68212;SDS011;55035;47.792;8.724;2023-01-01T00:17:48;128.40;;;57.05;;
68212;SDS011;55035;47.792;8.724;2023-01-01T00:20:15;123.72;;;52.97;;
68212;SDS011;55035;47.792;8.724;2023-01-01T00:22:43;121.32;;;53.25;;
68212;SDS011;55035;47.792;8.724;2023-01-01T00:25:10;120.60;;;54.27;;
68212;SDS011;55035;47.792;8.724;2023-01-01T00:27:38;143.20;;;63.75;;
68212;SDS011;55035;47.792;8.724;2023-01-01T00:30:06;148.18;;;65.28;;
68212;SDS011;55035;47.792;8.724;2023-01-01T00:32:33;113.97;;;51.22;;
68212;SDS011;55035;47.792;8.724;2023-01-01T00:35:00;119.18;;;50.67;;
68212;SDS011;55035;47.792;8.724;2023-01-01T00:37:27;123.70;;;53.07;;
68212;SDS011;55035;47.792;8.724;2023-01-01T00:39:55;133.10;;;59.00;;
68212;SDS011;55035;47.792;8.724;2023-01-01T00:42:22;103.10;;;49.08;;
68212;SDS011;55035;47.792;8.724;2023-01-01T00:44:49;109.30;;;47.95;;
68212;SDS011;55035;47.792;8.724;2023-01-01T00:47:15;116.57;;;51.55;;
68212;SDS011;55035;47.792;8.724;2023-01-01T00:49:42;148.73;;;64.30;;
68212;SDS011;55035;47.792;8.724;2023-01-01T00:52:10;130.63;;;59.47;;
68212;SDS011;55035;47.792;8.724;2023-01-01T00:54:37;134.07;;;60.03;;
68212;SDS011;55035;47.792;8.724;2023-01-01T00:57:05;132.75;;;59.28;;
68212;SDS011;55035;47.792;8.724;2023-01-01T00:59:32;125.90;;;56.70;;
68212;SDS011;55035;47.792;8.724;2023-01-01T01:01:59;132.87;;;57.00;;
68212;SDS011;55035;47.792;8.724;2023-01-01T01:04:25;126.60;;;59.38;;
68212;SDS011;55035;47.792;8.724;2023-01-01T01:06:52;125.22;;;57.50;;
68212;SDS011;55035;47.792;8.724;2023-01-01T01:09:19;100.70;;;46.28;;
68212;SDS011;55035;47.792;8.724;2023-01-01T01:11:46;86.53;;;40.20;;
68212;SDS011;55035;47.792;8.724;2023-01-01T01:14:14;72.93;;;34.37;;
68212;SDS011;55035;47.792;8.724;2023-01-01T01:16:41;70.53;;;34.95;;
68212;SDS011;55035;47.792;8.724;2023-01-01T01:19:08;82.18;;;39.67;;
68212;SDS011;55035;47.792;8.724;2023-01-01T01:21:39;61.20;;;29.20;;
68212;SDS011;55035;47.792;8.724;2023-01-01T01:24:06;79.53;;;37.42;;
68212;SDS011;55035;47.792;8.724;2023-01-01T01:26:33;74.40;;;34.23;;
68212;SDS011;55035;47.792;8.724;2023-01-01T01:29:01;66.72;;;30.60;;
68212;SDS011;55035;47.792;8.724;2023-01-01T01:31:30;83.78;;;38.40;;
68212;SDS011;55035;47.792;8.724;2023-01-01T01:33:57;84.75;;;39.22;;
68212;SDS011;55035;47.792;8.724;2023-01-01T01:36:24;77.90;;;34.95;;
68212;SDS011;55035;47.792;8.724;2023-01-01T01:38:52;75.57;;;34.47;;
68212;SDS011;55035;47.792;8.724;2023-01-01T01:41:19;74.53;;;35.70;;
68212;SDS011;55035;47.792;8.724;2023-01-01T01:43:50;59.45;;;28.90;;
68212;SDS011;55035;47.792;8.724;2023-01-01T01:46:18;56.22;;;27.55;;
68212;SDS011;55035;47.792;8.724;2023-01-01T01:48:48;54.53;;;25.15;;
68212;SDS011;55035;47.792;8.724;2023-01-01T01:51:16;57.00;;;26.90;;
68212;SDS011;55035;47.792;8.724;2023-01-01T01:53:44;54.75;;;26.10;;
68212;SDS011;55035;47.792;8.724;2023-01-01T01:56:12;58.97;;;28.27;;
68212;SDS011;55035;47.792;8.724;2023-01-01T01:58:39;53.50;;;25.63;;
68212;SDS011;55035;47.792;8.724;2023-01-01T02:01:07;59.88;;;26.80;;
68212;SDS011;55035;47.792;8.724;2023-01-01T02:03:36;67.03;;;30.87;;
68212;SDS011;55035;47.792;8.724;2023-01-01T02:06:06;62.38;;;29.50;;
68212;SDS011;55035;47.792;8.724;2023-01-01T02:08:33;69.82;;;32.00;;
68212;SDS011;55035;47.792;8.724;2023-01-01T02:11:00;59.95;;;27.90;;
68212;SDS011;55035;47.792;8.724;2023-01-01T02:13:27;67.25;;;31.50;;
68212;SDS011;55035;47.792;8.724;2023-01-01T02:16:02;81.67;;;36.97;;
68212;SDS011;55035;47.792;8.724;2023-01-01T02:18:34;68.88;;;31.65;;
68212;SDS011;55035;47.792;8.724;2023-01-01T02:21:03;71.55;;;32.63;;
68212;SDS011;55035;47.792;8.724;2023-01-01T02:23:51;87.05;;;34.15;;
68212;SDS011;55035;47.792;8.724;2023-01-01T02:26:27;55.30;;;26.20;;
68212;SDS011;55035;47.792;8.724;2023-01-01T02:29:06;51.73;;;23.30;;
68212;SDS011;55035;47.792;8.724;2023-01-01T02:31:36;53.47;;;24.83;;
68212;SDS011;55035;47.792;8.724;2023-01-01T02:34:06;53.53;;;24.55;;
68212;SDS011;55035;47.792;8.724;2023-01-01T02:36:34;61.80;;;27.92;;
68212;SDS011;55035;47.792;8.724;2023-01-01T02:39:03;55.40;;;27.50;;
68212;SDS011;55035;47.792;8.724;2023-01-01T02:41:32;31.50;;;13.63;;
68212;SDS011;55035;47.792;8.724;2023-01-01T02:44:01;54.30;;;24.80;;
68212;SDS011;55035;47.792;8.724;2023-01-01T02:46:31;43.13;;;19.63;;
68212;SDS011;55035;47.792;8.724;2023-01-01T02:48:58;56.63;;;24.92;;
68212;SDS011;55035;47.792;8.724;2023-01-01T02:51:26;59.95;;;26.35;;
68212;SDS011;55035;47.792;8.724;2023-01-01T02:53:58;57.87;;;26.00;;
68212;SDS011;55035;47.792;8.724;2023-01-01T02:56:30;48.67;;;22.17;;
68212;SDS011;55035;47.792;8.724;2023-01-01T02:59:00;50.42;;;23.33;;
68212;SDS011;55035;47.792;8.724;2023-01-01T03:01:50;48.45;;;22.02;;
68212;SDS011;55035;47.792;8.724;2023-01-01T03:04:21;48.90;;;22.30;;
68212;SDS011;55035;47.792;8.724;2023-01-01T03:06:49;43.03;;;20.10;;
68212;SDS011;55035;47.792;8.724;2023-01-01T03:09:19;38.95;;;17.80;;
68212;SDS011;55035;47.792;8.724;2023-01-01T03:11:49;34.67;;;15.45;;
68212;SDS011;55035;47.792;8.724;2023-01-01T03:14:20;37.40;;;18.08;;
68212;SDS011;55035;47.792;8.724;2023-01-01T03:16:51;42.00;;;18.25;;
68212;SDS011;55035;47.792;8.724;2023-01-01T03:19:20;55.27;;;24.03;;
68212;SDS011;55035;47.792;8.724;2023-01-01T03:21:49;44.13;;;20.88;;
68212;SDS011;55035;47.792;8.724;2023-01-01T03:24:19;46.78;;;21.58;;
68212;SDS011;55035;47.792;8.724;2023-01-01T03:26:47;40.83;;;19.38;;
68212;SDS011;55035;47.792;8.724;2023-01-01T03:29:16;37.72;;;18.77;;
68212;SDS011;55035;47.792;8.724;2023-01-01T03:31:43;39.23;;;18.10;;
68212;SDS011;55035;47.792;8.724;2023-01-01T03:34:13;40.60;;;18.38;;
68212;SDS011;55035;47.792;8.724;2023-01-01T03:36:43;37.83;;;18.40;;
68212;SDS011;55035;47.792;8.724;2023-01-01T03:39:11;43.10;;;19.42;;
68212;SDS011;55035;47.792;8.724;2023-01-01T03:41:39;30.52;;;14.50;;
68212;SDS011;55035;47.792;8.724;2023-01-01T03:44:10;35.03;;;16.07;;
68212;SDS011;55035;47.792;8.724;2023-01-01T03:46:39;37.00;;;17.05;;
68212;SDS011;55035;47.792;8.724;2023-01-01T03:49:07;32.83;;;15.00;;
68212;SDS011;55035;47.792;8.724;2023-01-01T03:51:42;37.28;;;17.42;;
68212;SDS011;55035;47.792;8.724;2023-01-01T03:54:14;39.03;;;17.63;;
68212;SDS011;55035;47.792;8.724;2023-01-01T03:56:44;23.20;;;10.77;;
68212;SDS011;55035;47.792;8.724;2023-01-01T03:59:14;25.20;;;12.07;;
68212;SDS011;55035;47.792;8.724;2023-01-01T04:01:43;33.47;;;15.25;;
68212;SDS011;55035;47.792;8.724;2023-01-01T04:04:10;34.95;;;16.05;;
68212;SDS011;55035;47.792;8.724;2023-01-01T04:06:38;33.67;;;16.65;;
68212;SDS011;55035;47.792;8.724;2023-01-01T04:09:08;30.60;;;12.90;;
68212;SDS011;55035;47.792;8.724;2023-01-01T04:11:37;23.55;;;9.93;;
68212;SDS011;55035;47.792;8.724;2023-01-01T04:14:27;21.75;;;10.43;;
68212;SDS011;55035;47.792;8.724;2023-01-01T04:16:56;20.95;;;9.88;;
68212;SDS011;55035;47.792;8.724;2023-01-01T04:19:23;23.70;;;10.85;;
68212;SDS011;55035;47.792;8.724;2023-01-01T04:21:50;32.70;;;14.50;;
68212;SDS011;55035;47.792;8.724;2023-01-01T04:24:18;32.75;;;15.93;;
68212;SDS011;55035;47.792;8.724;2023-01-01T04:26:45;28.63;;;14.65;;
68212;SDS011;55035;47.792;8.724;2023-01-01T04:29:12;28.00;;;14.30;;
68212;SDS011;55035;47.792;8.724;2023-01-01T04:31:38;24.95;;;11.85;;
68212;SDS011;55035;47.792;8.724;2023-01-01T04:34:05;24.27;;;10.50;;
68212;SDS011;55035;47.792;8.724;2023-01-01T04:36:32;22.70;;;9.60;;
68212;SDS011;55035;47.792;8.724;2023-01-01T04:38:59;22.55;;;9.25;;
68212;SDS011;55035;47.792;8.724;2023-01-01T04:41:27;21.38;;;9.85;;
68212;SDS011;55035;47.792;8.724;2023-01-01T04:43:54;24.52;;;10.40;;
68212;SDS011;55035;47.792;8.724;2023-01-01T04:46:22;17.87;;;8.10;;
68212;SDS011;55035;47.792;8.724;2023-01-01T04:48:49;18.75;;;7.97;;
68212;SDS011;55035;47.792;8.724;2023-01-01T04:51:17;23.48;;;10.57;;
68212;SDS011;55035;47.792;8.724;2023-01-01T04:53:44;23.98;;;9.60;;
68212;SDS011;55035;47.792;8.724;2023-01-01T04:56:11;18.52;;;8.05;;
68212;SDS011;55035;47.792;8.724;2023-01-01T04:58:40;16.90;;;6.80;;
68212;SDS011;55035;47.792;8.724;2023-01-01T05:01:07;19.70;;;8.95;;
68212;SDS011;55035;47.792;8.724;2023-01-01T05:03:39;19.10;;;8.90;;
68212;SDS011;55035;47.792;8.724;2023-01-01T05:06:06;19.88;;;9.60;;
68212;SDS011;55035;47.792;8.724;2023-01-01T05:08:34;24.08;;;11.27;;
68212;SDS011;55035;47.792;8.724;2023-01-01T05:11:02;28.03;;;12.80;;
68212;SDS011;55035;47.792;8.724;2023-01-01T05:13:29;25.92;;;11.70;;
68212;SDS011;55035;47.792;8.724;2023-01-01T05:16:00;17.23;;;8.30;;
68212;SDS011;55035;47.792;8.724;2023-01-01T05:18:27;23.83;;;9.80;;
68212;SDS011;55035;47.792;8.724;2023-01-01T05:20:57;19.35;;;7.82;;
68212;SDS011;55035;47.792;8.724;2023-01-01T05:23:25;15.07;;;6.67;;
68212;SDS011;55035;47.792;8.724;2023-01-01T05:25:51;18.38;;;7.82;;
68212;SDS011;55035;47.792;8.724;2023-01-01T05:28:18;17.75;;;7.75;;
68212;SDS011;55035;47.792;8.724;2023-01-01T05:30:45;26.92;;;9.32;;
68212;SDS011;55035;47.792;8.724;2023-01-01T05:33:13;16.33;;;7.03;;
68212;SDS011;55035;47.792;8.724;2023-01-01T05:35:40;17.20;;;7.60;;
68212;SDS011;55035;47.792;8.724;2023-01-01T05:38:07;15.27;;;6.70;;
68212;SDS011;55035;47.792;8.724;2023-01-01T05:40:33;17.25;;;7.15;;
68212;SDS011;55035;47.792;8.724;2023-01-01T05:43:00;14.63;;;5.95;;
68212;SDS011;55035;47.792;8.724;2023-01-01T05:45:27;14.60;;;6.40;;
68212;SDS011;55035;47.792;8.724;2023-01-01T05:47:55;14.27;;;5.87;;
68212;SDS011;55035;47.792;8.724;2023-01-01T05:50:23;15.43;;;5.65;;
68212;SDS011;55035;47.792;8.724;2023-01-01T05:52:50;17.67;;;5.72;;
68212;SDS011;55035;47.792;8.724;2023-01-01T05:55:17;16.00;;;6.43;;
68212;SDS011;55035;47.792;8.724;2023-01-01T05:57:43;17.58;;;7.43;;
68212;SDS011;55035;47.792;8.724;2023-01-01T06:00:11;16.73;;;5.80;;
68212;SDS011;55035;47.792;8.724;2023-01-01T06:02:38;15.35;;;6.00;;
68212;SDS011;55035;47.792;8.724;2023-01-01T06:05:04;15.75;;;5.97;;
68212;SDS011;55035;47.792;8.724;2023-01-01T06:07:33;14.60;;;6.40;;
68212;SDS011;55035;47.792;8.724;2023-01-01T06:10:00;17.95;;;7.68;;
68212;SDS011;55035;47.792;8.724;2023-01-01T06:12:27;15.50;;;6.60;;
68212;SDS011;55035;47.792;8.724;2023-01-01T06:14:54;15.38;;;6.10;;
68212;SDS011;55035;47.792;8.724;2023-01-01T06:17:21;15.73;;;6.78;;
68212;SDS011;55035;47.792;8.724;2023-01-01T06:19:48;13.88;;;5.70;;
68212;SDS011;55035;47.792;8.724;2023-01-01T06:22:14;16.05;;;5.95;;
68212;SDS011;55035;47.792;8.724;2023-01-01T06:24:43;13.57;;;6.17;;
68212;SDS011;55035;47.792;8.724;2023-01-01T06:27:09;13.90;;;5.68;;
68212;SDS011;55035;47.792;8.724;2023-01-01T06:29:36;16.67;;;6.13;;
68212;SDS011;55035;47.792;8.724;2023-01-01T06:32:03;16.25;;;6.00;;
68212;SDS011;55035;47.792;8.724;2023-01-01T06:34:30;15.90;;;6.10;;
68212;SDS011;55035;47.792;8.724;2023-01-01T06:36:58;15.73;;;5.93;;
68212;SDS011;55035;47.792;8.724;2023-01-01T06:39:26;13.15;;;5.57;;
68212;SDS011;55035;47.792;8.724;2023-01-01T06:41:54;13.65;;;6.13;;
68212;SDS011;55035;47.792;8.724;2023-01-01T06:44:21;16.35;;;6.15;;
68212;SDS011;55035;47.792;8.724;2023-01-01T06:46:47;16.85;;;6.47;;
68212;SDS011;55035;47.792;8.724;2023-01-01T06:49:15;14.07;;;5.87;;
68212;SDS011;55035;47.792;8.724;2023-01-01T06:51:42;13.98;;;5.78;;
68212;SDS011;55035;47.792;8.724;2023-01-01T06:54:09;15.70;;;6.00;;
68212;SDS011;55035;47.792;8.724;2023-01-01T06:56:36;15.95;;;5.70;;
68212;SDS011;55035;47.792;8.724;2023-01-01T06:59:05;14.93;;;5.90;;
68212;SDS011;55035;47.792;8.724;2023-01-01T07:01:33;14.73;;;5.67;;
68212;SDS011;55035;47.792;8.724;2023-01-01T07:04:01;12.73;;;5.45;;
68212;SDS011;55035;47.792;8.724;2023-01-01T07:06:29;15.05;;;6.00;;
68212;SDS011;55035;47.792;8.724;2023-01-01T07:08:57;15.80;;;6.63;;
68212;SDS011;55035;47.792;8.724;2023-01-01T07:11:24;17.42;;;6.90;;
68212;SDS011;55035;47.792;8.724;2023-01-01T07:13:50;15.40;;;6.73;;
68212;SDS011;55035;47.792;8.724;2023-01-01T07:16:19;15.52;;;5.95;;
68212;SDS011;55035;47.792;8.724;2023-01-01T07:18:45;16.55;;;6.05;;
68212;SDS011;55035;47.792;8.724;2023-01-01T07:21:21;13.77;;;5.80;;
68212;SDS011;55035;47.792;8.724;2023-01-01T07:23:50;14.95;;;6.38;;
68212;SDS011;55035;47.792;8.724;2023-01-01T07:26:16;15.13;;;5.73;;
68212;SDS011;55035;47.792;8.724;2023-01-01T07:28:43;12.95;;;5.35;;
68212;SDS011;55035;47.792;8.724;2023-01-01T07:31:10;13.23;;;5.80;;
68212;SDS011;55035;47.792;8.724;2023-01-01T07:33:38;13.57;;;5.72;;
68212;SDS011;55035;47.792;8.724;2023-01-01T07:36:05;16.85;;;6.15;;
68212;SDS011;55035;47.792;8.724;2023-01-01T07:38:33;13.53;;;5.27;;
68212;SDS011;55035;47.792;8.724;2023-01-01T07:40:59;15.65;;;5.53;;
68212;SDS011;55035;47.792;8.724;2023-01-01T07:43:26;14.38;;;5.38;;
68212;SDS011;55035;47.792;8.724;2023-01-01T07:45:53;12.82;;;5.65;;
68212;SDS011;55035;47.792;8.724;2023-01-01T07:48:20;15.88;;;5.93;;
68212;SDS011;55035;47.792;8.724;2023-01-01T07:50:49;13.53;;;6.00;;
68212;SDS011;55035;47.792;8.724;2023-01-01T07:53:16;13.93;;;5.38;;
68212;SDS011;55035;47.792;8.724;2023-01-01T07:55:43;12.60;;;5.15;;
68212;SDS011;55035;47.792;8.724;2023-01-01T07:58:11;13.55;;;5.85;;
68212;SDS011;55035;47.792;8.724;2023-01-01T08:00:38;13.07;;;5.47;;
68212;SDS011;55035;47.792;8.724;2023-01-01T08:03:05;12.80;;;5.93;;
68212;SDS011;55035;47.792;8.724;2023-01-01T08:05:32;17.15;;;8.45;;
68212;SDS011;55035;47.792;8.724;2023-01-01T08:08:03;14.27;;;6.47;;
68212;SDS011;55035;47.792;8.724;2023-01-01T08:10:30;19.15;;;8.73;;
68212;SDS011;55035;47.792;8.724;2023-01-01T08:12:59;15.07;;;7.40;;
68212;SDS011;55035;47.792;8.724;2023-01-01T08:15:26;15.20;;;6.83;;
68212;SDS011;55035;47.792;8.724;2023-01-01T08:17:56;14.52;;;6.88;;
68212;SDS011;55035;47.792;8.724;2023-01-01T08:20:24;15.85;;;8.05;;
68212;SDS011;55035;47.792;8.724;2023-01-01T08:22:51;18.88;;;8.25;;
68212;SDS011;55035;47.792;8.724;2023-01-01T08:25:20;17.48;;;7.13;;
68212;SDS011;55035;47.792;8.724;2023-01-01T08:27:47;13.03;;;6.07;;
68212;SDS011;55035;47.792;8.724;2023-01-01T08:30:14;11.85;;;5.78;;
68212;SDS011;55035;47.792;8.724;2023-01-01T08:32:41;13.45;;;5.65;;
68212;SDS011;55035;47.792;8.724;2023-01-01T08:35:08;11.80;;;5.65;;
68212;SDS011;55035;47.792;8.724;2023-01-01T08:37:35;12.07;;;6.18;;
68212;SDS011;55035;47.792;8.724;2023-01-01T08:40:02;13.40;;;7.17;;
68212;SDS011;55035;47.792;8.724;2023-01-01T08:42:30;13.73;;;6.30;;
68212;SDS011;55035;47.792;8.724;2023-01-01T08:44:57;14.38;;;6.97;;
68212;SDS011;55035;47.792;8.724;2023-01-01T08:47:25;14.63;;;7.38;;
68212;SDS011;55035;47.792;8.724;2023-01-01T08:49:52;14.38;;;6.55;;
68212;SDS011;55035;47.792;8.724;2023-01-01T08:52:19;10.33;;;4.20;;
68212;SDS011;55035;47.792;8.724;2023-01-01T08:54:47;14.60;;;6.65;;
68212;SDS011;55035;47.792;8.724;2023-01-01T08:57:13;10.82;;;4.53;;
68212;SDS011;55035;47.792;8.724;2023-01-01T08:59:42;13.40;;;7.30;;
68212;SDS011;55035;47.792;8.724;2023-01-01T09:02:09;19.08;;;9.07;;
68212;SDS011;55035;47.792;8.724;2023-01-01T09:04:37;15.10;;;7.53;;
68212;SDS011;55035;47.792;8.724;2023-01-01T09:07:03;15.00;;;7.43;;
68212;SDS011;55035;47.792;8.724;2023-01-01T09:09:30;15.80;;;6.40;;
68212;SDS011;55035;47.792;8.724;2023-01-01T09:11:57;16.30;;;8.20;;
68212;SDS011;55035;47.792;8.724;2023-01-01T09:14:28;11.82;;;6.00;;
68212;SDS011;55035;47.792;8.724;2023-01-01T09:16:57;11.30;;;4.77;;
68212;SDS011;55035;47.792;8.724;2023-01-01T09:19:25;12.80;;;5.45;;
68212;SDS011;55035;47.792;8.724;2023-01-01T09:21:53;12.50;;;5.80;;
68212;SDS011;55035;47.792;8.724;2023-01-01T09:24:20;11.85;;;5.78;;
68212;SDS011;55035;47.792;8.724;2023-01-01T09:26:48;13.27;;;6.95;;
68212;SDS011;55035;47.792;8.724;2023-01-01T09:29:16;12.77;;;6.17;;
68212;SDS011;55035;47.792;8.724;2023-01-01T09:31:45;13.75;;;6.30;;
68212;SDS011;55035;47.792;8.724;2023-01-01T09:34:13;13.38;;;6.47;;
68212;SDS011;55035;47.792;8.724;2023-01-01T09:36:41;12.93;;;6.38;;
68212;SDS011;55035;47.792;8.724;2023-01-01T09:39:09;13.05;;;6.55;;
68212;SDS011;55035;47.792;8.724;2023-01-01T09:41:42;12.07;;;6.40;;
68212;SDS011;55035;47.792;8.724;2023-01-01T09:44:12;12.65;;;5.97;;
68212;SDS011;55035;47.792;8.724;2023-01-01T09:46:42;13.07;;;6.07;;
68212;SDS011;55035;47.792;8.724;2023-01-01T09:49:10;11.27;;;5.75;;
68212;SDS011;55035;47.792;8.724;2023-01-01T09:51:39;12.45;;;6.30;;
68212;SDS011;55035;47.792;8.724;2023-01-01T09:54:10;10.80;;;5.97;;
68212;SDS011;55035;47.792;8.724;2023-01-01T09:56:38;12.05;;;6.90;;
68212;SDS011;55035;47.792;8.724;2023-01-01T09:59:07;12.98;;;6.00;;
68212;SDS011;55035;47.792;8.724;2023-01-01T10:01:37;11.95;;;5.55;;
68212;SDS011;55035;47.792;8.724;2023-01-01T10:04:14;11.45;;;5.50;;
68212;SDS011;55035;47.792;8.724;2023-01-01T10:06:50;9.53;;;4.90;;
68212;SDS011;55035;47.792;8.724;2023-01-01T10:09:22;7.75;;;3.40;;
68212;SDS011;55035;47.792;8.724;2023-01-01T10:11:53;9.45;;;2.95;;
68212;SDS011;55035;47.792;8.724;2023-01-01T10:14:22;7.22;;;2.10;;
68212;SDS011;55035;47.792;8.724;2023-01-01T10:16:50;7.75;;;2.50;;
68212;SDS011;55035;47.792;8.724;2023-01-01T10:19:21;9.20;;;2.07;;
68212;SDS011;55035;47.792;8.724;2023-01-01T10:21:53;6.93;;;2.10;;
68212;SDS011;55035;47.792;8.724;2023-01-01T10:24:29;6.07;;;2.03;;
68212;SDS011;55035;47.792;8.724;2023-01-01T10:26:56;6.78;;;2.58;;
68212;SDS011;55035;47.792;8.724;2023-01-01T10:29:26;7.13;;;2.15;;
68212;SDS011;55035;47.792;8.724;2023-01-01T10:31:55;5.87;;;1.60;;
68212;SDS011;55035;47.792;8.724;2023-01-01T10:34:23;7.32;;;2.08;;
68212;SDS011;55035;47.792;8.724;2023-01-01T10:36:54;7.43;;;2.72;;
68212;SDS011;55035;47.792;8.724;2023-01-01T10:39:23;8.52;;;2.35;;
68212;SDS011;55035;47.792;8.724;2023-01-01T10:41:53;9.27;;;2.28;;
68212;SDS011;55035;47.792;8.724;2023-01-01T10:44:20;6.33;;;2.57;;
68212;SDS011;55035;47.792;8.724;2023-01-01T10:46:53;6.82;;;2.22;;
68212;SDS011;55035;47.792;8.724;2023-01-01T10:49:22;7.57;;;2.53;;
68212;SDS011;55035;47.792;8.724;2023-01-01T10:51:49;11.90;;;3.55;;
68212;SDS011;55035;47.792;8.724;2023-01-01T10:54:32;7.32;;;2.67;;
68212;SDS011;55035;47.792;8.724;2023-01-01T10:57:01;7.47;;;2.70;;
68212;SDS011;55035;47.792;8.724;2023-01-01T10:59:38;7.97;;;2.50;;
68212;SDS011;55035;47.792;8.724;2023-01-01T11:02:13;7.10;;;2.70;;
68212;SDS011;55035;47.792;8.724;2023-01-01T11:04:41;5.93;;;2.00;;
68212;SDS011;55035;47.792;8.724;2023-01-01T11:07:08;6.35;;;2.38;;
68212;SDS011;55035;47.792;8.724;2023-01-01T11:09:36;6.70;;;2.10;;
68212;SDS011;55035;47.792;8.724;2023-01-01T11:12:04;8.18;;;2.17;;
68212;SDS011;55035;47.792;8.724;2023-01-01T11:14:33;8.95;;;2.30;;
68212;SDS011;55035;47.792;8.724;2023-01-01T11:17:02;6.82;;;2.58;;
68212;SDS011;55035;47.792;8.724;2023-01-01T11:19:29;7.90;;;2.20;;
68212;SDS011;55035;47.792;8.724;2023-01-01T11:21:57;7.57;;;2.30;;
68212;SDS011;55035;47.792;8.724;2023-01-01T11:24:24;6.47;;;2.38;;
68212;SDS011;55035;47.792;8.724;2023-01-01T11:27:03;7.93;;;2.70;;
68212;SDS011;55035;47.792;8.724;2023-01-01T11:29:37;6.63;;;2.30;;
68212;SDS011;55035;47.792;8.724;2023-01-01T11:32:04;7.68;;;2.67;;
68212;SDS011;55035;47.792;8.724;2023-01-01T11:34:33;6.73;;;1.70;;
68212;SDS011;55035;47.792;8.724;2023-01-01T11:37:07;6.68;;;1.80;;
68212;SDS011;55035;47.792;8.724;2023-01-01T11:39:35;8.57;;;2.17;;
68212;SDS011;55035;47.792;8.724;2023-01-01T11:42:04;6.40;;;1.70;;
68212;SDS011;55035;47.792;8.724;2023-01-01T11:44:34;7.05;;;2.10;;
68212;SDS011;55035;47.792;8.724;2023-01-01T11:47:01;7.73;;;1.90;;
68212;SDS011;55035;47.792;8.724;2023-01-01T11:49:29;6.68;;;2.17;;
68212;SDS011;55035;47.792;8.724;2023-01-01T11:51:56;6.03;;;1.83;;
68212;SDS011;55035;47.792;8.724;2023-01-01T11:54:29;6.47;;;2.10;;
68212;SDS011;55035;47.792;8.724;2023-01-01T11:57:02;6.47;;;1.70;;
68212;SDS011;55035;47.792;8.724;2023-01-01T11:59:35;8.80;;;2.40;;
68212;SDS011;55035;47.792;8.724;2023-01-01T12:02:03;8.55;;;1.77;;
68212;SDS011;55035;47.792;8.724;2023-01-01T12:04:31;8.02;;;2.30;;
68212;SDS011;55035;47.792;8.724;2023-01-01T12:07:07;7.35;;;2.00;;
68212;SDS011;55035;47.792;8.724;2023-01-01T12:09:36;6.38;;;2.30;;
68212;SDS011;55035;47.792;8.724;2023-01-01T12:12:08;6.40;;;1.90;;
68212;SDS011;55035;47.792;8.724;2023-01-01T12:14:40;6.22;;;1.90;;
68212;SDS011;55035;47.792;8.724;2023-01-01T12:17:13;9.55;;;1.83;;
68212;SDS011;55035;47.792;8.724;2023-01-01T12:19:43;7.78;;;2.33;;
68212;SDS011;55035;47.792;8.724;2023-01-01T12:22:14;6.13;;;2.28;;
68212;SDS011;55035;47.792;8.724;2023-01-01T12:24:41;7.90;;;2.00;;
68212;SDS011;55035;47.792;8.724;2023-01-01T12:27:14;5.80;;;1.80;;
68212;SDS011;55035;47.792;8.724;2023-01-01T12:29:47;7.05;;;2.25;;
68212;SDS011;55035;47.792;8.724;2023-01-01T12:32:19;5.95;;;1.77;;
68212;SDS011;55035;47.792;8.724;2023-01-01T12:34:49;7.00;;;2.13;;
68212;SDS011;55035;47.792;8.724;2023-01-01T12:37:22;7.20;;;2.27;;
68212;SDS011;55035;47.792;8.724;2023-01-01T12:40:27;7.53;;;1.92;;
68212;SDS011;55035;47.792;8.724;2023-01-01T12:42:59;5.85;;;2.13;;
68212;SDS011;55035;47.792;8.724;2023-01-01T12:45:37;5.78;;;1.90;;
68212;SDS011;55035;47.792;8.724;2023-01-01T12:48:13;7.25;;;2.08;;
68212;SDS011;55035;47.792;8.724;2023-01-01T12:50:45;6.03;;;1.73;;
68212;SDS011;55035;47.792;8.724;2023-01-01T12:53:18;7.43;;;2.28;;
68212;SDS011;55035;47.792;8.724;2023-01-01T12:56:03;5.75;;;1.90;;
68212;SDS011;55035;47.792;8.724;2023-01-01T12:58:31;7.35;;;2.00;;
68212;SDS011;55035;47.792;8.724;2023-01-01T13:01:03;7.10;;;2.10;;
68212;SDS011;55035;47.792;8.724;2023-01-01T13:03:32;5.70;;;1.93;;
68212;SDS011;55035;47.792;8.724;2023-01-01T13:05:59;7.45;;;1.92;;
68212;SDS011;55035;47.792;8.724;2023-01-01T13:08:27;7.30;;;2.03;;
68212;SDS011;55035;47.792;8.724;2023-01-01T13:10:55;6.90;;;1.92;;
68212;SDS011;55035;47.792;8.724;2023-01-01T13:13:22;6.93;;;1.88;;
68212;SDS011;55035;47.792;8.724;2023-01-01T13:15:50;7.77;;;2.00;;
68212;SDS011;55035;47.792;8.724;2023-01-01T13:18:20;6.88;;;2.08;;
68212;SDS011;55035;47.792;8.724;2023-01-01T13:20:53;6.82;;;2.13;;
68212;SDS011;55035;47.792;8.724;2023-01-01T13:39:51;7.18;;;1.75;;
68212;SDS011;55035;47.792;8.724;2023-01-01T13:42:41;6.27;;;1.80;;
68212;SDS011;55035;47.792;8.724;2023-01-01T13:45:12;7.13;;;2.35;;
68212;SDS011;55035;47.792;8.724;2023-01-01T13:47:56;8.20;;;2.00;;
68212;SDS011;55035;47.792;8.724;2023-01-01T13:50:25;6.13;;;2.22;;
68212;SDS011;55035;47.792;8.724;2023-01-01T13:52:58;7.88;;;1.98;;
68212;SDS011;55035;47.792;8.724;2023-01-01T13:55:36;12.87;;;5.00;;
68212;SDS011;55035;47.792;8.724;2023-01-01T14:00:53;8.60;;;1.85;;
68212;SDS011;55035;47.792;8.724;2023-01-01T14:03:25;5.85;;;2.20;;
68212;SDS011;55035;47.792;8.724;2023-01-01T14:05:54;7.60;;;3.25;;
68212;SDS011;55035;47.792;8.724;2023-01-01T14:08:27;7.60;;;2.50;;
68212;SDS011;55035;47.792;8.724;2023-01-01T14:10:56;8.73;;;2.90;;
68212;SDS011;55035;47.792;8.724;2023-01-01T14:13:25;6.40;;;2.25;;
68212;SDS011;55035;47.792;8.724;2023-01-01T14:15:54;7.30;;;2.15;;
68212;SDS011;55035;47.792;8.724;2023-01-01T14:18:24;5.88;;;1.60;;
68212;SDS011;55035;47.792;8.724;2023-01-01T14:20:52;7.63;;;1.63;;
68212;SDS011;55035;47.792;8.724;2023-01-01T14:23:22;7.07;;;1.83;;
68212;SDS011;55035;47.792;8.724;2023-01-01T14:25:52;7.07;;;2.58;;
68212;SDS011;55035;47.792;8.724;2023-01-01T14:28:23;5.68;;;1.77;;
68212;SDS011;55035;47.792;8.724;2023-01-01T14:30:50;8.07;;;1.65;;
68212;SDS011;55035;47.792;8.724;2023-01-01T14:33:20;5.83;;;1.80;;
68212;SDS011;55035;47.792;8.724;2023-01-01T14:35:53;6.03;;;1.60;;
68212;SDS011;55035;47.792;8.724;2023-01-01T14:38:24;5.97;;;1.65;;
68212;SDS011;55035;47.792;8.724;2023-01-01T14:43:42;6.00;;;2.00;;
68212;SDS011;55035;47.792;8.724;2023-01-01T14:46:12;6.13;;;1.90;;
68212;SDS011;55035;47.792;8.724;2023-01-01T14:48:41;7.22;;;2.13;;
68212;SDS011;55035;47.792;8.724;2023-01-01T14:51:10;5.95;;;1.60;;
68212;SDS011;55035;47.792;8.724;2023-01-01T14:53:40;7.43;;;1.77;;
68212;SDS011;55035;47.792;8.724;2023-01-01T14:56:08;5.60;;;1.70;;
68212;SDS011;55035;47.792;8.724;2023-01-01T14:58:35;6.87;;;1.63;;
68212;SDS011;55035;47.792;8.724;2023-01-01T15:03:57;7.13;;;2.00;;
68212;SDS011;55035;47.792;8.724;2023-01-01T15:06:24;6.90;;;1.95;;
68212;SDS011;55035;47.792;8.724;2023-01-01T15:08:51;6.63;;;1.70;;